CCA1836 ZSPD-ZBAA
Flight info
| Callsign | CCA1836 |
|---|---|
| Flight time | 1h 39m |
| Altitude | 34100 |
| Route | POMOK G330 PIMOL A593 DALIM W157 AVBOX |
| Aircraft | B77W/H-SDE1E2E3FGHIJ2J3J4J5M1RWXY/LB1D1 |
Departure
| Time | 2026-05-07 11:45 |
|---|---|
| Airport | Shanghai Pudong International Airport (ZSPD) |
Arrival
| Time | 2026-05-07 13:24 |
|---|---|
| Airport | Beijing Capital International Airport (ZBAA) |
| Time | Latitude | Longitude | Altitude | Speed | Heading |
|---|---|---|---|---|---|
| 2026-05-07 10:51 | 31.14907 | 121.80909 | 28 ft | 0 kts | 252° |
| 2026-05-07 11:27 | 31.14907 | 121.80911 | 28 ft | 1 kts | 252° |
| 2026-05-07 11:27 | 31.14912 | 121.80926 | 28 ft | 2 kts | 252° |
| 2026-05-07 11:27 | 31.14917 | 121.80943 | 28 ft | 2 kts | 255° |
| 2026-05-07 11:27 | 31.14918 | 121.80960 | 28 ft | 2 kts | 272° |
| 2026-05-07 11:28 | 31.14916 | 121.80978 | 28 ft | 2 kts | 286° |
| 2026-05-07 11:28 | 31.14911 | 121.80994 | 28 ft | 2 kts | 299° |
| 2026-05-07 11:28 | 31.14903 | 121.81007 | 28 ft | 2 kts | 313° |
| 2026-05-07 11:28 | 31.14892 | 121.81019 | 28 ft | 2 kts | 326° |
| 2026-05-07 11:29 | 31.14879 | 121.81027 | 28 ft | 1 kts | 340° |
| 2026-05-07 11:29 | 31.14873 | 121.81029 | 28 ft | 0 kts | 343° |
| 2026-05-07 11:32 | 31.14900 | 121.81019 | 28 ft | 6 kts | 340° |
| 2026-05-07 11:32 | 31.14957 | 121.80997 | 28 ft | 11 kts | 341° |
| 2026-05-07 11:32 | 31.15037 | 121.80966 | 28 ft | 11 kts | 342° |
| 2026-05-07 11:33 | 31.15113 | 121.80939 | 28 ft | 10 kts | 343° |
| 2026-05-07 11:33 | 31.15182 | 121.80913 | 28 ft | 10 kts | 340° |
| 2026-05-07 11:33 | 31.15246 | 121.80886 | 28 ft | 9 kts | 340° |
| 2026-05-07 11:33 | 31.15306 | 121.80862 | 28 ft | 8 kts | 341° |
| 2026-05-07 11:34 | 31.15363 | 121.80840 | 28 ft | 8 kts | 343° |
| 2026-05-07 11:34 | 31.15421 | 121.80820 | 28 ft | 9 kts | 344° |
| 2026-05-07 11:34 | 31.15481 | 121.80799 | 28 ft | 9 kts | 342° |
| 2026-05-07 11:34 | 31.15550 | 121.80772 | 28 ft | 12 kts | 340° |
| 2026-05-07 11:35 | 31.15642 | 121.80744 | 28 ft | 13 kts | 5° |
| 2026-05-07 11:35 | 31.15691 | 121.80820 | 28 ft | 12 kts | 72° |
| 2026-05-07 11:35 | 31.15692 | 121.80907 | 28 ft | 10 kts | 124° |
| 2026-05-07 11:35 | 31.15626 | 121.80949 | 28 ft | 12 kts | 160° |
| 2026-05-07 11:36 | 31.15537 | 121.80984 | 28 ft | 14 kts | 162° |
| 2026-05-07 11:36 | 31.15429 | 121.81025 | 28 ft | 18 kts | 162° |
| 2026-05-07 11:36 | 31.15290 | 121.81078 | 28 ft | 23 kts | 162° |
| 2026-05-07 11:36 | 31.15118 | 121.81142 | 28 ft | 28 kts | 163° |
| 2026-05-07 11:37 | 31.14916 | 121.81218 | 28 ft | 32 kts | 162° |
| 2026-05-07 11:37 | 31.14689 | 121.81304 | 28 ft | 26 kts | 162° |
| 2026-05-07 11:37 | 31.14534 | 121.81359 | 28 ft | 13 kts | 173° |
| 2026-05-07 11:37 | 31.14477 | 121.81298 | 28 ft | 12 kts | 250° |
| 2026-05-07 11:38 | 31.14448 | 121.81200 | 28 ft | 12 kts | 252° |
| 2026-05-07 11:38 | 31.14418 | 121.81091 | 28 ft | 15 kts | 252° |
| 2026-05-07 11:38 | 31.14383 | 121.80967 | 28 ft | 17 kts | 252° |
| 2026-05-07 11:38 | 31.14340 | 121.80815 | 28 ft | 22 kts | 252° |
| 2026-05-07 11:39 | 31.14286 | 121.80621 | 28 ft | 27 kts | 251° |
| 2026-05-07 11:39 | 31.14222 | 121.80395 | 28 ft | 31 kts | 252° |
| 2026-05-07 11:39 | 31.14152 | 121.80141 | 28 ft | 33 kts | 253° |
| 2026-05-07 11:39 | 31.14087 | 121.79893 | 28 ft | 28 kts | 249° |
| 2026-05-07 11:40 | 31.14040 | 121.79731 | 28 ft | 15 kts | 260° |
| 2026-05-07 11:40 | 31.13990 | 121.79633 | 28 ft | 16 kts | 182° |
| 2026-05-07 11:40 | 31.13860 | 121.79675 | 28 ft | 21 kts | 161° |
| 2026-05-07 11:40 | 31.13723 | 121.79727 | 28 ft | 20 kts | 161° |
| 2026-05-07 11:41 | 31.13592 | 121.79779 | 28 ft | 19 kts | 161° |
| 2026-05-07 11:41 | 31.13466 | 121.79824 | 28 ft | 19 kts | 163° |
| 2026-05-07 11:41 | 31.13324 | 121.79878 | 28 ft | 22 kts | 162° |
| 2026-05-07 11:41 | 31.13166 | 121.79938 | 28 ft | 25 kts | 162° |
| 2026-05-07 11:42 | 31.13018 | 121.79994 | 28 ft | 14 kts | 162° |
| 2026-05-07 11:42 | 31.12919 | 121.80031 | 28 ft | 14 kts | 162° |
| 2026-05-07 11:42 | 31.12840 | 121.80061 | 28 ft | 9 kts | 161° |
| 2026-05-07 11:42 | 31.12782 | 121.80080 | 28 ft | 5 kts | 185° |
| 2026-05-07 11:43 | 31.12747 | 121.80043 | 28 ft | 7 kts | 243° |
| 2026-05-07 11:43 | 31.12728 | 121.79984 | 28 ft | 7 kts | 251° |
| 2026-05-07 11:43 | 31.12712 | 121.79926 | 28 ft | 7 kts | 260° |
| 2026-05-07 11:43 | 31.12732 | 121.79885 | 28 ft | 6 kts | 326° |
| 2026-05-07 11:44 | 31.12770 | 121.79867 | 28 ft | 5 kts | 342° |
| 2026-05-07 11:44 | 31.12813 | 121.79850 | 28 ft | 12 kts | 341° |
| 2026-05-07 11:44 | 31.13163 | 121.79720 | 28 ft | 84 kts | 343° |
| 2026-05-07 11:44 | 31.14012 | 121.79395 | 97 ft | 168 kts | 343° |
| 2026-05-07 11:45 | 31.15200 | 121.78928 | 976 ft | 190 kts | 343° |
| 2026-05-07 11:45 | 31.16357 | 121.78526 | 2574 ft | 169 kts | 351° |
| 2026-05-07 11:45 | 31.17469 | 121.78137 | 3320 ft | 178 kts | 339° |
| 2026-05-07 11:45 | 31.18660 | 121.77581 | 3871 ft | 196 kts | 341° |
| 2026-05-07 11:46 | 31.20003 | 121.77023 | 4534 ft | 212 kts | 341° |
| 2026-05-07 11:46 | 31.21444 | 121.76440 | 5207 ft | 229 kts | 341° |
| 2026-05-07 11:46 | 31.22989 | 121.75813 | 5874 ft | 248 kts | 340° |
| 2026-05-07 11:46 | 31.24678 | 121.75126 | 6621 ft | 265 kts | 340° |
| 2026-05-07 11:47 | 31.26438 | 121.74410 | 7676 ft | 270 kts | 339° |
| 2026-05-07 11:47 | 31.28190 | 121.73698 | 8760 ft | 272 kts | 338° |
| 2026-05-07 11:47 | 31.29974 | 121.72971 | 9759 ft | 276 kts | 336° |
| 2026-05-07 11:47 | 31.31680 | 121.71980 | 10590 ft | 283 kts | 324° |
| 2026-05-07 11:48 | 31.33276 | 121.70531 | 11217 ft | 298 kts | 313° |
| 2026-05-07 11:48 | 31.34647 | 121.68652 | 11828 ft | 315 kts | 302° |
| 2026-05-07 11:48 | 31.35695 | 121.66354 | 12439 ft | 331 kts | 290° |
| 2026-05-07 11:48 | 31.36303 | 121.63703 | 13041 ft | 346 kts | 278° |
| 2026-05-07 11:49 | 31.36355 | 121.60849 | 13818 ft | 359 kts | 265° |
| 2026-05-07 11:49 | 31.35758 | 121.57970 | 14714 ft | 370 kts | 250° |
| 2026-05-07 11:49 | 31.34547 | 121.55332 | 15676 ft | 376 kts | 241° |
| 2026-05-07 11:49 | 31.33252 | 121.52699 | 16597 ft | 377 kts | 248° |
| 2026-05-07 11:50 | 31.32277 | 121.49865 | 17491 ft | 380 kts | 253° |
| 2026-05-07 11:50 | 31.31461 | 121.46919 | 18378 ft | 384 kts | 256° |
| 2026-05-07 11:50 | 31.30748 | 121.43948 | 19246 ft | 386 kts | 257° |
| 2026-05-07 11:50 | 31.30168 | 121.40896 | 20148 ft | 388 kts | 263° |
| 2026-05-07 11:51 | 31.29968 | 121.37742 | 20943 ft | 391 kts | 271° |
| 2026-05-07 11:51 | 31.30187 | 121.34571 | 21776 ft | 395 kts | 278° |
| 2026-05-07 11:51 | 31.30826 | 121.31463 | 22596 ft | 398 kts | 286° |
| 2026-05-07 11:51 | 31.31873 | 121.28507 | 23494 ft | 401 kts | 294° |
| 2026-05-07 11:52 | 31.33330 | 121.25707 | 24272 ft | 408 kts | 302° |
| 2026-05-07 11:52 | 31.35211 | 121.23140 | 24942 ft | 419 kts | 311° |
| 2026-05-07 11:52 | 31.37296 | 121.20765 | 25664 ft | 424 kts | 311° |
| 2026-05-07 11:52 | 31.39400 | 121.18306 | 26393 ft | 429 kts | 310° |
| 2026-05-07 11:53 | 31.41468 | 121.15804 | 27065 ft | 434 kts | 309° |
| 2026-05-07 11:53 | 31.43652 | 121.13361 | 27748 ft | 443 kts | 316° |
| 2026-05-07 11:53 | 31.46196 | 121.11238 | 28483 ft | 452 kts | 324° |
| 2026-05-07 11:53 | 31.48992 | 121.09545 | 29280 ft | 458 kts | 329° |
| 2026-05-07 11:54 | 31.51882 | 121.08000 | 30089 ft | 460 kts | 330° |
| 2026-05-07 11:54 | 31.54795 | 121.06456 | 30960 ft | 459 kts | 330° |
| 2026-05-07 11:54 | 31.57702 | 121.04915 | 31862 ft | 456 kts | 329° |
| 2026-05-07 11:54 | 31.60566 | 121.03395 | 32775 ft | 452 kts | 329° |
| 2026-05-07 11:55 | 31.63427 | 121.01874 | 33585 ft | 449 kts | 329° |
| 2026-05-07 11:55 | 31.66241 | 121.00376 | 34091 ft | 450 kts | 329° |
| 2026-05-07 11:55 | 31.69084 | 120.98860 | 34145 ft | 449 kts | 329° |
| 2026-05-07 11:56 | 31.74784 | 120.95821 | 34152 ft | 447 kts | 329° |
| 2026-05-07 11:56 | 31.80412 | 120.92814 | 34150 ft | 445 kts | 329° |
| 2026-05-07 11:57 | 31.86074 | 120.89784 | 34156 ft | 448 kts | 329° |
| 2026-05-07 11:57 | 31.91724 | 120.86758 | 34156 ft | 446 kts | 329° |
| 2026-05-07 11:58 | 31.97361 | 120.83732 | 34154 ft | 446 kts | 329° |
| 2026-05-07 11:58 | 32.02997 | 120.80701 | 34161 ft | 446 kts | 329° |
| 2026-05-07 11:59 | 32.08464 | 120.77428 | 34156 ft | 435 kts | 320° |
| 2026-05-07 11:59 | 32.12919 | 120.72784 | 34158 ft | 424 kts | 306° |
| 2026-05-07 12:00 | 32.16057 | 120.66973 | 34166 ft | 417 kts | 292° |
| 2026-05-07 12:00 | 32.17707 | 120.60510 | 34161 ft | 414 kts | 278° |
| 2026-05-07 12:01 | 32.18315 | 120.53777 | 34163 ft | 412 kts | 276° |
| 2026-05-07 12:01 | 32.18866 | 120.47087 | 34162 ft | 411 kts | 276° |
| 2026-05-07 12:02 | 32.19414 | 120.40414 | 34164 ft | 410 kts | 276° |
| 2026-05-07 12:02 | 32.19960 | 120.33720 | 34173 ft | 410 kts | 276° |
| 2026-05-07 12:03 | 32.20503 | 120.27047 | 34184 ft | 408 kts | 275° |
| 2026-05-07 12:03 | 32.21048 | 120.20402 | 34190 ft | 410 kts | 275° |
| 2026-05-07 12:04 | 32.21590 | 120.13747 | 34192 ft | 407 kts | 275° |
| 2026-05-07 12:04 | 32.22126 | 120.07116 | 34193 ft | 406 kts | 276° |
| 2026-05-07 12:05 | 32.22656 | 120.00526 | 34186 ft | 405 kts | 276° |
| 2026-05-07 12:05 | 32.23188 | 119.93864 | 34191 ft | 407 kts | 275° |
| 2026-05-07 12:06 | 32.23711 | 119.87270 | 34193 ft | 406 kts | 276° |
| 2026-05-07 12:06 | 32.24984 | 119.80823 | 34190 ft | 408 kts | 289° |
| 2026-05-07 12:07 | 32.27690 | 119.74917 | 34185 ft | 415 kts | 303° |
| 2026-05-07 12:07 | 32.31728 | 119.69973 | 34181 ft | 424 kts | 316° |
| 2026-05-07 12:08 | 32.36533 | 119.65886 | 34179 ft | 426 kts | 319° |
| 2026-05-07 12:08 | 32.41335 | 119.61830 | 34186 ft | 426 kts | 319° |
| 2026-05-07 12:09 | 32.46124 | 119.57758 | 34186 ft | 425 kts | 319° |
| 2026-05-07 12:09 | 32.50914 | 119.53643 | 34187 ft | 426 kts | 318° |
| 2026-05-07 12:10 | 32.55736 | 119.49480 | 34184 ft | 428 kts | 318° |
| 2026-05-07 12:10 | 32.60525 | 119.45341 | 34190 ft | 425 kts | 318° |
| 2026-05-07 12:11 | 32.65311 | 119.41195 | 34193 ft | 427 kts | 318° |
| 2026-05-07 12:11 | 32.70074 | 119.37064 | 34194 ft | 427 kts | 318° |
| 2026-05-07 12:12 | 32.74882 | 119.32889 | 34212 ft | 426 kts | 317° |
| 2026-05-07 12:12 | 32.79681 | 119.28714 | 34211 ft | 429 kts | 317° |
| 2026-05-07 12:13 | 32.84467 | 119.24546 | 34213 ft | 427 kts | 317° |
| 2026-05-07 12:13 | 32.89229 | 119.20393 | 34210 ft | 425 kts | 317° |
| 2026-05-07 12:14 | 32.94066 | 119.16162 | 34217 ft | 444 kts | 318° |
| 2026-05-07 12:14 | 32.96616 | 119.13950 | 34220 ft | 455 kts | 318° |
| 2026-05-07 12:14 | 32.99198 | 119.11729 | 34216 ft | 465 kts | 318° |
| 2026-05-07 12:15 | 33.04459 | 119.07204 | 34214 ft | 467 kts | 319° |
| 2026-05-07 12:15 | 33.09722 | 119.02669 | 34215 ft | 467 kts | 318° |
| 2026-05-07 12:16 | 33.14984 | 118.98125 | 34219 ft | 467 kts | 318° |
| 2026-05-07 12:16 | 33.20217 | 118.93597 | 34217 ft | 465 kts | 318° |
| 2026-05-07 12:17 | 33.25430 | 118.89050 | 34219 ft | 466 kts | 318° |
| 2026-05-07 12:17 | 33.30620 | 118.84515 | 34219 ft | 463 kts | 318° |
| 2026-05-07 12:18 | 33.35833 | 118.80001 | 34218 ft | 465 kts | 318° |
| 2026-05-07 12:18 | 33.41053 | 118.75478 | 34216 ft | 461 kts | 318° |
| 2026-05-07 12:19 | 33.46291 | 118.70929 | 34214 ft | 463 kts | 318° |
| 2026-05-07 12:19 | 33.51459 | 118.66449 | 34210 ft | 462 kts | 318° |
| 2026-05-07 12:20 | 33.56677 | 118.61924 | 34208 ft | 464 kts | 318° |
| 2026-05-07 12:20 | 33.61874 | 118.57411 | 34211 ft | 462 kts | 318° |
| 2026-05-07 12:21 | 33.67063 | 118.52897 | 34212 ft | 463 kts | 317° |
| 2026-05-07 12:21 | 33.72252 | 118.48376 | 34211 ft | 461 kts | 317° |
| 2026-05-07 12:22 | 33.77429 | 118.43858 | 34210 ft | 461 kts | 318° |
| 2026-05-07 12:22 | 33.82624 | 118.39317 | 34211 ft | 462 kts | 317° |
| 2026-05-07 12:23 | 33.87755 | 118.34826 | 34209 ft | 459 kts | 317° |
| 2026-05-07 12:23 | 33.92937 | 118.30283 | 34228 ft | 459 kts | 317° |
| 2026-05-07 12:24 | 33.98060 | 118.25787 | 34225 ft | 458 kts | 317° |
| 2026-05-07 12:24 | 34.03231 | 118.21287 | 34225 ft | 458 kts | 317° |
| 2026-05-07 12:25 | 34.08393 | 118.16790 | 34222 ft | 458 kts | 317° |
| 2026-05-07 12:25 | 34.13534 | 118.12313 | 34223 ft | 459 kts | 317° |
| 2026-05-07 12:26 | 34.18724 | 118.07790 | 34226 ft | 458 kts | 317° |
| 2026-05-07 12:26 | 34.23831 | 118.03333 | 34229 ft | 456 kts | 317° |
| 2026-05-07 12:27 | 34.29338 | 117.99427 | 34228 ft | 470 kts | 330° |
| 2026-05-07 12:27 | 34.35710 | 117.96992 | 34240 ft | 478 kts | 335° |
| 2026-05-07 12:28 | 34.42066 | 117.94739 | 34241 ft | 480 kts | 335° |
| 2026-05-07 12:28 | 34.48463 | 117.92461 | 34249 ft | 481 kts | 335° |
| 2026-05-07 12:29 | 34.54874 | 117.90172 | 34247 ft | 478 kts | 335° |
| 2026-05-07 12:29 | 34.61282 | 117.87875 | 34247 ft | 481 kts | 335° |
| 2026-05-07 12:30 | 34.67699 | 117.85573 | 34251 ft | 478 kts | 335° |
| 2026-05-07 12:30 | 34.74089 | 117.83274 | 34252 ft | 479 kts | 334° |
| 2026-05-07 12:31 | 34.80466 | 117.80975 | 34249 ft | 480 kts | 335° |
| 2026-05-07 12:31 | 34.86834 | 117.78655 | 34251 ft | 479 kts | 334° |
| 2026-05-07 12:32 | 34.93210 | 117.76322 | 34253 ft | 480 kts | 334° |
| 2026-05-07 12:32 | 34.99591 | 117.73986 | 34256 ft | 482 kts | 334° |
| 2026-05-07 12:33 | 35.09182 | 117.70472 | 34253 ft | 478 kts | 334° |
| 2026-05-07 12:33 | 35.15538 | 117.68141 | 34254 ft | 477 kts | 334° |
| 2026-05-07 12:34 | 35.21889 | 117.65808 | 34255 ft | 476 kts | 334° |
| 2026-05-07 12:34 | 35.28211 | 117.63483 | 34255 ft | 475 kts | 334° |
| 2026-05-07 12:35 | 35.34582 | 117.61134 | 34255 ft | 476 kts | 334° |
| 2026-05-07 12:35 | 35.40899 | 117.58803 | 34253 ft | 475 kts | 333° |
| 2026-05-07 12:36 | 35.47235 | 117.56459 | 34251 ft | 475 kts | 333° |
| 2026-05-07 12:36 | 35.53527 | 117.54129 | 34252 ft | 475 kts | 333° |
| 2026-05-07 12:37 | 35.59860 | 117.51781 | 34252 ft | 472 kts | 333° |
| 2026-05-07 12:37 | 35.66095 | 117.49464 | 34251 ft | 473 kts | 333° |
| 2026-05-07 12:38 | 35.72401 | 117.47117 | 34252 ft | 471 kts | 333° |
| 2026-05-07 12:38 | 35.78706 | 117.44765 | 34249 ft | 474 kts | 333° |
| 2026-05-07 12:39 | 35.84949 | 117.42436 | 34248 ft | 471 kts | 333° |
| 2026-05-07 12:39 | 35.91220 | 117.40089 | 34246 ft | 471 kts | 333° |
| 2026-05-07 12:40 | 35.97468 | 117.37749 | 34247 ft | 469 kts | 333° |
| 2026-05-07 12:40 | 36.03702 | 117.35426 | 34245 ft | 469 kts | 333° |
| 2026-05-07 12:41 | 36.09960 | 117.33118 | 34267 ft | 468 kts | 332° |
| 2026-05-07 12:41 | 36.16200 | 117.30809 | 34270 ft | 469 kts | 332° |
| 2026-05-07 12:42 | 36.22432 | 117.28500 | 34267 ft | 467 kts | 332° |
| 2026-05-07 12:42 | 36.28619 | 117.26208 | 34268 ft | 461 kts | 332° |
| 2026-05-07 12:43 | 36.34806 | 117.23902 | 34270 ft | 467 kts | 332° |
| 2026-05-07 12:43 | 36.40939 | 117.21618 | 34268 ft | 459 kts | 330° |
| 2026-05-07 12:44 | 36.46796 | 117.18723 | 34273 ft | 450 kts | 326° |
| 2026-05-07 12:44 | 36.52592 | 117.15701 | 34271 ft | 450 kts | 326° |
| 2026-05-07 12:45 | 36.58333 | 117.12708 | 34268 ft | 452 kts | 326° |
| 2026-05-07 12:45 | 36.64077 | 117.09712 | 34263 ft | 449 kts | 326° |
| 2026-05-07 12:46 | 36.69839 | 117.06702 | 34260 ft | 450 kts | 326° |
| 2026-05-07 12:46 | 36.75543 | 117.03720 | 34259 ft | 444 kts | 326° |
| 2026-05-07 12:47 | 36.81253 | 117.00726 | 34258 ft | 447 kts | 326° |
| 2026-05-07 12:47 | 36.86899 | 116.97766 | 34256 ft | 444 kts | 325° |
| 2026-05-07 12:48 | 36.92586 | 116.94778 | 34254 ft | 440 kts | 325° |
| 2026-05-07 12:48 | 36.98225 | 116.91808 | 34255 ft | 442 kts | 326° |
| 2026-05-07 12:49 | 37.03867 | 116.88833 | 34251 ft | 441 kts | 326° |
| 2026-05-07 12:49 | 37.09518 | 116.85849 | 34246 ft | 438 kts | 326° |
| 2026-05-07 12:50 | 37.15134 | 116.82877 | 34252 ft | 443 kts | 325° |
| 2026-05-07 12:50 | 37.20781 | 116.79890 | 34249 ft | 440 kts | 326° |
| 2026-05-07 12:51 | 37.26664 | 116.77512 | 34244 ft | 436 kts | 331° |
| 2026-05-07 12:51 | 37.29488 | 116.76466 | 34240 ft | 418 kts | 331° |
| 2026-05-07 12:51 | 37.32232 | 116.75444 | 34242 ft | 401 kts | 331° |
| 2026-05-07 12:52 | 37.37516 | 116.73443 | 34243 ft | 403 kts | 330° |
| 2026-05-07 12:52 | 37.42944 | 116.71377 | 33865 ft | 408 kts | 331° |
| 2026-05-07 12:53 | 37.45657 | 116.70354 | 33502 ft | 402 kts | 330° |
| 2026-05-07 12:53 | 37.48314 | 116.69350 | 33110 ft | 397 kts | 330° |
| 2026-05-07 12:53 | 37.50972 | 116.68336 | 32720 ft | 406 kts | 331° |
| 2026-05-07 12:53 | 37.53670 | 116.67304 | 32325 ft | 411 kts | 331° |
| 2026-05-07 12:54 | 37.56414 | 116.66261 | 31941 ft | 410 kts | 331° |
| 2026-05-07 12:54 | 37.59148 | 116.65224 | 31543 ft | 410 kts | 331° |
| 2026-05-07 12:54 | 37.61868 | 116.64187 | 31168 ft | 414 kts | 332° |
| 2026-05-07 12:54 | 37.64640 | 116.63132 | 30794 ft | 412 kts | 332° |
| 2026-05-07 12:55 | 37.67349 | 116.62099 | 30434 ft | 412 kts | 333° |
| 2026-05-07 12:55 | 37.70090 | 116.61054 | 30048 ft | 411 kts | 333° |
| 2026-05-07 12:55 | 37.72837 | 116.60004 | 29666 ft | 413 kts | 333° |
| 2026-05-07 12:55 | 37.75593 | 116.58951 | 29318 ft | 413 kts | 333° |
| 2026-05-07 12:56 | 37.78334 | 116.57960 | 28967 ft | 413 kts | 338° |
| 2026-05-07 12:56 | 37.81159 | 116.57263 | 28598 ft | 412 kts | 340° |
| 2026-05-07 12:56 | 37.83985 | 116.56612 | 28229 ft | 410 kts | 340° |
| 2026-05-07 12:56 | 37.86763 | 116.55973 | 27884 ft | 408 kts | 341° |
| 2026-05-07 12:57 | 37.89559 | 116.55330 | 27525 ft | 406 kts | 341° |
| 2026-05-07 12:57 | 37.92309 | 116.54697 | 27162 ft | 402 kts | 341° |
| 2026-05-07 12:57 | 37.95050 | 116.54067 | 26790 ft | 398 kts | 342° |
| 2026-05-07 12:57 | 37.97770 | 116.53439 | 26430 ft | 395 kts | 342° |
| 2026-05-07 12:58 | 38.00458 | 116.52818 | 26054 ft | 391 kts | 342° |
| 2026-05-07 12:58 | 38.03111 | 116.52206 | 25681 ft | 389 kts | 343° |
| 2026-05-07 12:58 | 38.05756 | 116.51594 | 25311 ft | 387 kts | 344° |
| 2026-05-07 12:58 | 38.08419 | 116.50977 | 24925 ft | 384 kts | 344° |
| 2026-05-07 12:59 | 38.11030 | 116.50372 | 24555 ft | 381 kts | 345° |
| 2026-05-07 12:59 | 38.13604 | 116.49775 | 24197 ft | 378 kts | 345° |
| 2026-05-07 12:59 | 38.16211 | 116.49171 | 23831 ft | 375 kts | 345° |
| 2026-05-07 12:59 | 38.18754 | 116.48579 | 23477 ft | 373 kts | 345° |
| 2026-05-07 13:00 | 38.21317 | 116.47984 | 23109 ft | 371 kts | 346° |
| 2026-05-07 13:00 | 38.23846 | 116.47395 | 22742 ft | 371 kts | 345° |
| 2026-05-07 13:00 | 38.26368 | 116.46807 | 22373 ft | 369 kts | 346° |
| 2026-05-07 13:00 | 38.28899 | 116.46217 | 21996 ft | 370 kts | 346° |
| 2026-05-07 13:01 | 38.31426 | 116.45628 | 21623 ft | 367 kts | 346° |
| 2026-05-07 13:01 | 38.33917 | 116.45046 | 21257 ft | 367 kts | 347° |
| 2026-05-07 13:01 | 38.36431 | 116.44459 | 20883 ft | 365 kts | 347° |
| 2026-05-07 13:01 | 38.38924 | 116.43875 | 20511 ft | 364 kts | 347° |
| 2026-05-07 13:02 | 38.41408 | 116.43295 | 20133 ft | 362 kts | 347° |
| 2026-05-07 13:02 | 38.43887 | 116.42714 | 19761 ft | 362 kts | 347° |
| 2026-05-07 13:02 | 38.46352 | 116.42136 | 19380 ft | 360 kts | 347° |
| 2026-05-07 13:02 | 38.48795 | 116.41563 | 19008 ft | 359 kts | 348° |
| 2026-05-07 13:03 | 38.51257 | 116.40986 | 18625 ft | 358 kts | 348° |
| 2026-05-07 13:03 | 38.53694 | 116.40413 | 18249 ft | 357 kts | 348° |
| 2026-05-07 13:03 | 38.56115 | 116.39844 | 17870 ft | 354 kts | 348° |
| 2026-05-07 13:03 | 38.58522 | 116.39278 | 17490 ft | 352 kts | 348° |
| 2026-05-07 13:04 | 38.60929 | 116.38712 | 17112 ft | 351 kts | 348° |
| 2026-05-07 13:04 | 38.63351 | 116.38225 | 16725 ft | 351 kts | 353° |
| 2026-05-07 13:04 | 38.65807 | 116.38235 | 16317 ft | 353 kts | 3° |
| 2026-05-07 13:04 | 38.68187 | 116.38753 | 15891 ft | 352 kts | 9° |
| 2026-05-07 13:05 | 38.70597 | 116.39433 | 15458 ft | 351 kts | 9° |
| 2026-05-07 13:05 | 38.72946 | 116.40102 | 15048 ft | 349 kts | 10° |
| 2026-05-07 13:05 | 38.75323 | 116.40778 | 14935 ft | 347 kts | 9° |
| 2026-05-07 13:05 | 38.77665 | 116.41442 | 14927 ft | 347 kts | 10° |
| 2026-05-07 13:06 | 38.80024 | 116.42110 | 14926 ft | 348 kts | 10° |
| 2026-05-07 13:06 | 38.82416 | 116.42788 | 14927 ft | 348 kts | 9° |
| 2026-05-07 13:06 | 38.84759 | 116.43452 | 14927 ft | 348 kts | 10° |
| 2026-05-07 13:06 | 38.87147 | 116.44129 | 14925 ft | 349 kts | 9° |
| 2026-05-07 13:07 | 38.89507 | 116.44799 | 14922 ft | 348 kts | 9° |
| 2026-05-07 13:07 | 38.91867 | 116.45469 | 14920 ft | 348 kts | 9° |
| 2026-05-07 13:07 | 38.94230 | 116.46140 | 14920 ft | 348 kts | 9° |
| 2026-05-07 13:07 | 38.96579 | 116.46808 | 14924 ft | 348 kts | 9° |
| 2026-05-07 13:08 | 38.98948 | 116.47482 | 14924 ft | 348 kts | 9° |
| 2026-05-07 13:08 | 39.01315 | 116.48155 | 14919 ft | 349 kts | 10° |
| 2026-05-07 13:08 | 39.03686 | 116.48831 | 14635 ft | 350 kts | 10° |
| 2026-05-07 13:08 | 39.06036 | 116.49501 | 14230 ft | 346 kts | 10° |
| 2026-05-07 13:09 | 39.08403 | 116.50176 | 13817 ft | 344 kts | 10° |
| 2026-05-07 13:09 | 39.10715 | 116.50725 | 13416 ft | 340 kts | 3° |
| 2026-05-07 13:09 | 39.13081 | 116.50687 | 13019 ft | 337 kts | 353° |
| 2026-05-07 13:09 | 39.15419 | 116.50351 | 12623 ft | 335 kts | 352° |
| 2026-05-07 13:10 | 39.17708 | 116.49998 | 12229 ft | 333 kts | 352° |
| 2026-05-07 13:10 | 39.20001 | 116.49641 | 11830 ft | 332 kts | 352° |
| 2026-05-07 13:10 | 39.22293 | 116.49284 | 11430 ft | 332 kts | 352° |
| 2026-05-07 13:10 | 39.24602 | 116.48925 | 11030 ft | 331 kts | 352° |
| 2026-05-07 13:11 | 39.26864 | 116.48573 | 10637 ft | 329 kts | 352° |
| 2026-05-07 13:11 | 39.29137 | 116.48219 | 10231 ft | 329 kts | 352° |
| 2026-05-07 13:11 | 39.31401 | 116.47866 | 9822 ft | 329 kts | 352° |
| 2026-05-07 13:11 | 39.33663 | 116.47514 | 9424 ft | 326 kts | 352° |
| 2026-05-07 13:12 | 39.35909 | 116.47163 | 9020 ft | 325 kts | 352° |
| 2026-05-07 13:12 | 39.38160 | 116.46812 | 8615 ft | 323 kts | 352° |
| 2026-05-07 13:12 | 39.40382 | 116.46465 | 8217 ft | 323 kts | 353° |
| 2026-05-07 13:12 | 39.42589 | 116.46120 | 8034 ft | 321 kts | 352° |
| 2026-05-07 13:13 | 39.44816 | 116.45772 | 8024 ft | 321 kts | 353° |
| 2026-05-07 13:13 | 39.47076 | 116.45706 | 7985 ft | 325 kts | 7° |
| 2026-05-07 13:13 | 39.49129 | 116.46664 | 7910 ft | 313 kts | 27° |
| 2026-05-07 13:13 | 39.50906 | 116.48183 | 7914 ft | 297 kts | 32° |
| 2026-05-07 13:14 | 39.52541 | 116.49723 | 7910 ft | 282 kts | 33° |
| 2026-05-07 13:14 | 39.54071 | 116.51183 | 7900 ft | 267 kts | 33° |
| 2026-05-07 13:14 | 39.55544 | 116.52589 | 7894 ft | 255 kts | 32° |
| 2026-05-07 13:14 | 39.56964 | 116.53941 | 7897 ft | 255 kts | 32° |
| 2026-05-07 13:15 | 39.58398 | 116.55308 | 7893 ft | 256 kts | 32° |
| 2026-05-07 13:15 | 39.59856 | 116.56699 | 7651 ft | 259 kts | 33° |
| 2026-05-07 13:15 | 39.61316 | 116.58092 | 7212 ft | 263 kts | 33° |
| 2026-05-07 13:15 | 39.62795 | 116.59506 | 6763 ft | 267 kts | 33° |
| 2026-05-07 13:16 | 39.64301 | 116.60944 | 6317 ft | 270 kts | 33° |
| 2026-05-07 13:16 | 39.65811 | 116.62381 | 5865 ft | 273 kts | 31° |
| 2026-05-07 13:16 | 39.67554 | 116.63290 | 5395 ft | 269 kts | 6° |
| 2026-05-07 13:16 | 39.69419 | 116.63308 | 4948 ft | 270 kts | 355° |
| 2026-05-07 13:17 | 39.71283 | 116.63065 | 4504 ft | 272 kts | 353° |
| 2026-05-07 13:17 | 39.73180 | 116.62772 | 4045 ft | 274 kts | 353° |
| 2026-05-07 13:17 | 39.75088 | 116.62484 | 3591 ft | 276 kts | 353° |
| 2026-05-07 13:17 | 39.77091 | 116.62183 | 3141 ft | 277 kts | 354° |
| 2026-05-07 13:18 | 39.78963 | 116.61900 | 3022 ft | 265 kts | 353° |
| 2026-05-07 13:18 | 39.80751 | 116.61620 | 3009 ft | 251 kts | 353° |
| 2026-05-07 13:18 | 39.82455 | 116.61342 | 3003 ft | 237 kts | 353° |
| 2026-05-07 13:18 | 39.84051 | 116.61079 | 3000 ft | 223 kts | 353° |
| 2026-05-07 13:19 | 39.85498 | 116.60841 | 3011 ft | 210 kts | 353° |
| 2026-05-07 13:19 | 39.86937 | 116.60609 | 3012 ft | 200 kts | 353° |
| 2026-05-07 13:19 | 39.88300 | 116.60396 | 3013 ft | 197 kts | 353° |
| 2026-05-07 13:19 | 39.89624 | 116.60191 | 3016 ft | 185 kts | 353° |
| 2026-05-07 13:20 | 39.90868 | 116.59999 | 3003 ft | 170 kts | 353° |
| 2026-05-07 13:20 | 39.91976 | 116.59827 | 2993 ft | 153 kts | 353° |
| 2026-05-07 13:20 | 39.93012 | 116.59666 | 2865 ft | 146 kts | 353° |
| 2026-05-07 13:20 | 39.93991 | 116.59514 | 2688 ft | 136 kts | 353° |
| 2026-05-07 13:21 | 39.94940 | 116.59365 | 2521 ft | 138 kts | 353° |
| 2026-05-07 13:21 | 39.95897 | 116.59216 | 2340 ft | 137 kts | 353° |
| 2026-05-07 13:21 | 39.96857 | 116.59064 | 2158 ft | 139 kts | 353° |
| 2026-05-07 13:21 | 39.97808 | 116.58916 | 1980 ft | 138 kts | 353° |
| 2026-05-07 13:22 | 39.98770 | 116.58764 | 1798 ft | 138 kts | 353° |
| 2026-05-07 13:22 | 39.99725 | 116.58614 | 1623 ft | 138 kts | 354° |
| 2026-05-07 13:22 | 40.00684 | 116.58465 | 1440 ft | 138 kts | 354° |
| 2026-05-07 13:22 | 40.01645 | 116.58314 | 1254 ft | 140 kts | 353° |
| 2026-05-07 13:23 | 40.02611 | 116.58161 | 1072 ft | 140 kts | 353° |
| 2026-05-07 13:23 | 40.03592 | 116.58011 | 883 ft | 146 kts | 354° |
| 2026-05-07 13:23 | 40.04559 | 116.57862 | 693 ft | 136 kts | 348° |
| 2026-05-07 13:23 | 40.05509 | 116.57687 | 512 ft | 139 kts | 353° |
| 2026-05-07 13:24 | 40.06486 | 116.57554 | 336 ft | 144 kts | 350° |
| 2026-05-07 13:24 | 40.07477 | 116.57396 | 148 ft | 144 kts | 352° |
| 2026-05-07 13:24 | 40.08315 | 116.57265 | 131 ft | 71 kts | 354° |
| 2026-05-07 13:24 | 40.08669 | 116.57209 | 131 ft | 43 kts | 353° |
| 2026-05-07 13:25 | 40.08877 | 116.57177 | 131 ft | 22 kts | 353° |
| 2026-05-07 13:25 | 40.09005 | 116.57157 | 131 ft | 14 kts | 355° |
| 2026-05-07 13:25 | 40.09084 | 116.57153 | 131 ft | 7 kts | 4° |
| 2026-05-07 13:25 | 40.09117 | 116.57157 | 131 ft | 1 kts | 6° |
| 2026-05-07 13:26 | 40.09129 | 116.57159 | 131 ft | 5 kts | 5° |
| 2026-05-07 13:26 | 40.09176 | 116.57168 | 131 ft | 9 kts | 11° |
| 2026-05-07 13:26 | 40.09242 | 116.57193 | 131 ft | 5 kts | 20° |
| 2026-05-07 13:26 | 40.09250 | 116.57197 | 131 ft | 3 kts | 19° |
| 2026-05-07 13:27 | 40.09287 | 116.57214 | 131 ft | 3 kts | 20° |
| 2026-05-07 13:27 | 40.09293 | 116.57217 | 131 ft | 1 kts | 21° |
| 2026-05-07 13:27 | 40.09303 | 116.57222 | 131 ft | 1 kts | 25° |
| 2026-05-07 13:27 | 40.09315 | 116.57231 | 131 ft | 2 kts | 37° |
| 2026-05-07 13:28 | 40.09326 | 116.57248 | 131 ft | 2 kts | 56° |
| 2026-05-07 13:28 | 40.09335 | 116.57272 | 131 ft | 3 kts | 74° |
| 2026-05-07 13:28 | 40.09334 | 116.57299 | 131 ft | 2 kts | 115° |
| 2026-05-07 13:28 | 40.09314 | 116.57318 | 131 ft | 6 kts | 156° |
| 2026-05-07 13:29 | 40.09257 | 116.57336 | 131 ft | 10 kts | 171° |
| 2026-05-07 13:29 | 40.09180 | 116.57350 | 131 ft | 11 kts | 173° |
| 2026-05-07 13:29 | 40.09103 | 116.57362 | 131 ft | 11 kts | 173° |
| 2026-05-07 13:29 | 40.09009 | 116.57377 | 131 ft | 16 kts | 173° |
| 2026-05-07 13:30 | 40.08885 | 116.57396 | 131 ft | 19 kts | 173° |
| 2026-05-07 13:30 | 40.08739 | 116.57419 | 131 ft | 21 kts | 173° |
| 2026-05-07 13:30 | 40.08596 | 116.57443 | 131 ft | 20 kts | 173° |
| 2026-05-07 13:30 | 40.08462 | 116.57465 | 131 ft | 18 kts | 173° |
| 2026-05-07 13:31 | 40.08334 | 116.57484 | 131 ft | 14 kts | 173° |
| 2026-05-07 13:31 | 40.08302 | 116.57509 | 131 ft | 3 kts | 101° |